createdAt,value
2016-02-23T00:00:05.778Z,10.57
2016-02-23T00:01:05.781Z,10.64
2016-02-23T00:02:05.784Z,10.57
2016-02-23T00:03:05.787Z,10.56
2016-02-23T00:04:05.789Z,10.64
2016-02-23T00:05:05.800Z,10.64
2016-02-23T00:06:05.788Z,10.6
2016-02-23T00:07:05.791Z,10.64
2016-02-23T00:08:05.793Z,10.61
2016-02-23T00:09:05.797Z,10.59
2016-02-23T00:10:05.814Z,10.57
2016-02-23T00:11:05.801Z,10.71
2016-02-23T00:12:05.805Z,10.68
2016-02-23T00:13:05.807Z,10.67
2016-02-23T00:14:05.810Z,10.74
2016-02-23T00:15:05.812Z,10.71
2016-02-23T00:16:05.815Z,10.72
2016-02-23T00:17:05.818Z,10.71
2016-02-23T00:18:05.820Z,10.71
2016-02-23T00:19:05.838Z,10.78
2016-02-23T00:20:05.826Z,10.75
2016-02-23T00:21:05.813Z,10.78
2016-02-23T00:22:05.811Z,10.72
2016-02-23T00:23:05.803Z,10.75
2016-02-23T00:24:05.794Z,10.69
2016-02-23T00:25:05.785Z,10.71
2016-02-23T00:26:05.777Z,10.81
2016-02-23T00:27:05.787Z,10.86
2016-02-23T00:28:05.769Z,10.79
2016-02-23T00:29:05.752Z,10.94
2016-02-23T00:30:05.751Z,10.82
2016-02-23T00:31:05.750Z,10.89
2016-02-23T00:32:05.749Z,10.87
2016-02-23T00:33:05.766Z,10.93
2016-02-23T00:34:05.752Z,10.9
2016-02-23T00:35:05.770Z,10.87
2016-02-23T00:36:05.771Z,10.82
2016-02-23T00:37:05.756Z,10.84
2016-02-23T00:38:05.758Z,10.94
2016-02-23T00:39:05.776Z,10.94
2016-02-23T00:40:05.748Z,10.92
2016-02-23T00:41:05.764Z,10.92
2016-02-23T00:42:05.773Z,10.93
2016-02-23T00:43:05.761Z,10.92
2016-02-23T00:44:05.764Z,10.93
2016-02-23T00:45:05.750Z,10.89
2016-02-23T00:46:05.754Z,10.92
2016-02-23T00:47:05.772Z,10.89
2016-02-23T00:48:05.774Z,10.93
2016-02-23T00:49:05.762Z,11.02
2016-02-23T00:50:05.764Z,11.02
2016-02-23T00:51:05.782Z,10.93
2016-02-23T00:52:05.785Z,10.96
2016-02-23T00:53:05.772Z,10.97
2016-02-23T00:54:05.791Z,11.04
2016-02-23T00:55:05.794Z,11.08
2016-02-23T00:56:05.780Z,10.97
2016-02-23T00:57:05.783Z,10.93
2016-02-23T00:58:05.802Z,11.08
2016-02-23T00:59:05.788Z,10.94
2016-02-23T01:00:05.791Z,11
2016-02-23T01:01:05.794Z,11.11
2016-02-23T01:02:05.796Z,11.05
2016-02-23T01:03:05.783Z,11.05
2016-02-23T01:04:05.786Z,11.1
2016-02-23T01:05:05.788Z,10.97
2016-02-23T01:06:05.791Z,11.05
2016-02-23T01:07:05.794Z,11.05
2016-02-23T01:08:05.812Z,10.97
2016-02-23T01:09:05.815Z,11.07
2016-02-23T01:10:05.818Z,11.05
2016-02-23T01:11:05.820Z,11.1
2016-02-23T01:12:05.824Z,10.99
2016-02-23T01:13:05.826Z,11.04
2016-02-23T01:14:05.797Z,11.02
2016-02-23T01:15:05.831Z,10.96
2016-02-23T01:16:05.834Z,11.15
2016-02-23T01:17:05.837Z,11.1
2016-02-23T01:18:05.808Z,11.12
2016-02-23T01:19:05.811Z,11.12
2016-02-23T01:20:05.829Z,11.19
2016-02-23T01:21:05.832Z,11.18
2016-02-23T01:22:05.819Z,11.19
2016-02-23T01:23:05.837Z,11.22
2016-02-23T01:24:05.824Z,11.32
2016-02-23T01:25:05.843Z,11.29
2016-02-23T01:26:05.845Z,11.22
2016-02-23T01:27:05.847Z,11.27
2016-02-23T01:28:05.850Z,11.27
2016-02-23T01:29:05.838Z,11.23
2016-02-23T01:30:05.872Z,11.25
2016-02-23T01:31:05.843Z,11.17
2016-02-23T01:32:05.846Z,11.17
2016-02-23T01:33:05.833Z,11.27
2016-02-23T01:34:05.852Z,11.17
2016-02-23T01:35:05.854Z,11.17
2016-02-23T01:36:05.856Z,11.27
2016-02-23T01:37:05.844Z,11.22
2016-02-23T01:38:05.940Z,11.22
2016-02-23T01:39:05.880Z,11.17
2016-02-23T01:40:05.868Z,11.19
2016-02-23T01:41:05.870Z,11.19
2016-02-23T01:42:05.857Z,11.22
2016-02-23T01:43:05.891Z,11.25
2016-02-23T01:44:05.878Z,11.22
2016-02-23T01:45:05.865Z,11.27
2016-02-23T01:46:05.899Z,11.25
2016-02-23T01:47:05.870Z,11.27
2016-02-23T01:48:05.873Z,11.27
2016-02-23T01:49:05.876Z,11.18
2016-02-23T01:50:05.894Z,11.29
2016-02-23T01:51:05.944Z,11.33
2016-02-23T01:52:05.962Z,11.29
2016-02-23T01:53:05.886Z,11.26
2016-02-23T01:54:05.889Z,11.26
2016-02-23T01:55:05.908Z,11.23
2016-02-23T01:56:05.894Z,11.22
2016-02-23T01:57:05.898Z,11.14
2016-02-23T01:58:05.884Z,11.22
2016-02-23T01:59:05.902Z,11.17
2016-02-23T02:00:05.906Z,11.29
2016-02-23T02:01:05.924Z,11.27
2016-02-23T02:02:05.926Z,11.19
2016-02-23T02:03:05.929Z,11.23
2016-02-23T02:04:05.900Z,11.18
2016-02-23T02:05:05.919Z,11.17
2016-02-23T02:06:05.906Z,11.23
2016-02-23T02:07:05.908Z,11.18
2016-02-23T02:08:05.911Z,11.23
2016-02-23T02:09:05.914Z,11.26
2016-02-23T02:10:05.916Z,11.29
2016-02-23T02:11:05.903Z,11.32
2016-02-23T02:12:05.907Z,11.18
2016-02-23T02:13:05.909Z,11.18
2016-02-23T02:14:05.927Z,11.18
2016-02-23T02:15:05.915Z,11.29
2016-02-23T02:16:05.917Z,11.25
2016-02-23T02:17:05.935Z,11.17
2016-02-23T02:18:05.954Z,11.22
2016-02-23T02:19:05.925Z,11.15
2016-02-23T02:20:05.928Z,11.17
2016-02-23T02:21:05.931Z,11.14
2016-02-23T02:22:05.934Z,11.12
2016-02-23T02:23:05.936Z,11.15
2016-02-23T02:24:05.939Z,11.12
2016-02-23T02:25:05.942Z,11.11
2016-02-23T02:26:05.959Z,11.11
2016-02-23T02:27:05.931Z,11.15
2016-02-23T02:28:05.919Z,11.08
2016-02-23T02:29:05.936Z,11.1
2016-02-23T02:30:05.944Z,11.07
2016-02-23T02:31:05.947Z,11.15
2016-02-23T02:32:05.949Z,11.15
2016-02-23T02:33:05.952Z,11.1
2016-02-23T02:34:05.955Z,11.12
2016-02-23T02:35:05.957Z,11.14
2016-02-23T02:36:05.960Z,11.12
2016-02-23T02:37:05.979Z,11.14
2016-02-23T02:38:06.028Z,11.15
2016-02-23T02:39:06.047Z,11.1
2016-02-23T02:40:05.955Z,11.11
2016-02-23T02:41:05.957Z,11.12
2016-02-23T02:42:05.961Z,11.14
2016-02-23T02:43:05.979Z,11.15
2016-02-23T02:44:05.965Z,11.08
2016-02-23T02:45:05.984Z,11.12
2016-02-23T02:46:05.971Z,11.18
2016-02-23T02:47:05.989Z,11.14
2016-02-23T02:48:05.977Z,11.15
2016-02-23T02:49:05.979Z,11.07
2016-02-23T02:50:05.981Z,11.14
2016-02-23T02:51:05.985Z,11.1
2016-02-23T02:52:05.987Z,11.12
2016-02-23T02:53:05.989Z,11.1
2016-02-23T02:54:05.993Z,11.04
2016-02-23T02:55:05.980Z,11.02
2016-02-23T02:56:05.983Z,11.05
2016-02-23T02:57:05.986Z,11.1
2016-02-23T02:58:05.988Z,11.02
2016-02-23T02:59:05.991Z,11.07
2016-02-23T03:00:05.994Z,11.02
2016-02-23T03:01:05.996Z,10.94
2016-02-23T03:02:05.999Z,10.97
2016-02-23T03:03:06.002Z,10.96
2016-02-23T03:04:06.005Z,10.94
2016-02-23T03:05:06.241Z,10.99
2016-02-23T03:06:06.010Z,10.96
2016-02-23T03:07:06.013Z,10.97
2016-02-23T03:08:05.859Z,10.99
2016-02-23T03:09:06.018Z,10.96
2016-02-23T03:10:06.020Z,10.94
2016-02-23T03:11:06.038Z,10.97
2016-02-23T03:12:06.025Z,10.99
2016-02-23T03:13:06.029Z,10.96
2016-02-23T03:14:06.031Z,10.94
2016-02-23T03:15:06.034Z,11.08
2016-02-23T03:16:06.037Z,10.97
2016-02-23T03:17:06.039Z,10.92
2016-02-23T03:18:06.073Z,10.97
2016-02-23T03:19:06.045Z,10.92
2016-02-23T03:20:06.047Z,10.92
2016-02-23T03:21:06.050Z,10.97
2016-02-23T03:22:06.053Z,10.89
2016-02-23T03:23:06.102Z,10.96
2016-02-23T03:24:06.106Z,10.93
2016-02-23T03:25:06.045Z,10.94
2016-02-23T03:26:06.047Z,10.93
2016-02-23T03:27:06.036Z,10.97
2016-02-23T03:28:06.038Z,10.96
2016-02-23T03:29:06.041Z,10.92
2016-02-23T03:30:06.043Z,10.96
2016-02-23T03:31:06.046Z,10.89
2016-02-23T03:32:06.048Z,10.97
2016-02-23T03:33:06.067Z,10.93
2016-02-23T03:34:06.054Z,10.87
2016-02-23T03:35:06.071Z,10.92
2016-02-23T03:36:06.060Z,10.92
2016-02-23T03:37:06.062Z,10.94
2016-02-23T03:38:06.065Z,10.86
2016-02-23T03:39:06.067Z,10.93
2016-02-23T03:40:06.070Z,10.92
2016-02-23T03:41:06.073Z,10.81
2016-02-23T03:42:06.076Z,10.84
2016-02-23T03:43:06.078Z,10.78
2016-02-23T03:44:06.081Z,10.81
2016-02-23T03:45:05.942Z,10.84
2016-02-23T03:46:06.087Z,10.82
2016-02-23T03:47:06.089Z,10.84
2016-02-23T03:48:05.950Z,10.86
2016-02-23T03:49:06.095Z,10.71
2016-02-23T03:50:06.097Z,10.79
2016-02-23T03:51:06.084Z,10.81
2016-02-23T03:52:06.103Z,10.72
2016-02-23T03:53:05.933Z,10.74
2016-02-23T03:54:06.092Z,10.79
2016-02-23T03:55:06.111Z,10.79
2016-02-23T03:56:06.097Z,10.81
2016-02-23T03:57:06.099Z,10.75
2016-02-23T03:58:06.103Z,10.72
2016-02-23T03:59:06.121Z,10.74
2016-02-23T04:00:06.108Z,10.76
2016-02-23T04:01:06.111Z,10.68
2016-02-23T04:02:06.113Z,10.78
2016-02-23T04:03:06.116Z,10.78
2016-02-23T04:04:06.119Z,10.75
2016-02-23T04:05:06.137Z,10.79
2016-02-23T04:06:06.140Z,10.71
2016-02-23T04:07:06.127Z,10.74
2016-02-23T04:08:06.129Z,10.75
2016-02-23T04:09:06.148Z,10.76
2016-02-23T04:10:06.135Z,10.72
2016-02-23T04:11:06.138Z,10.69
2016-02-23T04:12:06.140Z,10.72
2016-02-23T04:13:06.143Z,10.76
2016-02-23T04:14:06.146Z,10.63
2016-02-23T04:15:06.148Z,10.69
2016-02-23T04:16:06.167Z,10.63
2016-02-23T04:17:06.013Z,10.71
2016-02-23T04:18:06.140Z,10.75
2016-02-23T04:19:06.143Z,10.69
2016-02-23T04:20:06.146Z,10.75
2016-02-23T04:21:06.148Z,10.75
2016-02-23T04:22:06.151Z,10.69
2016-02-23T04:23:06.154Z,10.72
2016-02-23T04:24:06.188Z,10.71
2016-02-23T04:25:06.191Z,10.64
2016-02-23T04:26:06.162Z,10.59
2016-02-23T04:27:06.180Z,10.64
2016-02-23T04:28:06.184Z,10.57
2016-02-23T04:29:06.186Z,10.53
2016-02-23T04:30:06.188Z,10.6
2016-02-23T04:31:06.192Z,10.46
2016-02-23T04:32:06.178Z,10.57
2016-02-23T04:33:06.166Z,10.56
2016-02-23T04:34:06.184Z,10.51
2016-02-23T04:35:06.186Z,10.46
2016-02-23T04:36:06.189Z,10.46
2016-02-23T04:37:06.192Z,10.44
2016-02-23T04:38:06.194Z,10.4
2016-02-23T04:39:06.196Z,10.4
2016-02-23T04:40:06.184Z,10.41
2016-02-23T04:41:06.187Z,10.4
2016-02-23T04:42:06.190Z,10.35
2016-02-23T04:43:06.207Z,10.38
2016-02-23T04:44:06.210Z,10.35
2016-02-23T04:45:06.213Z,10.4
2016-02-23T04:46:06.201Z,10.38
2016-02-23T04:47:06.219Z,10.35
2016-02-23T04:48:06.206Z,10.35
2016-02-23T04:49:06.208Z,10.38
2016-02-23T04:50:06.212Z,10.35
2016-02-23T04:51:06.214Z,10.38
2016-02-23T04:52:06.216Z,10.4
2016-02-23T04:53:06.204Z,10.33
2016-02-23T04:54:06.206Z,10.37
2016-02-23T04:55:06.209Z,10.31
2016-02-23T04:56:06.228Z,10.33
2016-02-23T04:57:06.214Z,10.35
2016-02-23T04:58:06.217Z,10.31
2016-02-23T04:59:06.236Z,10.31
2016-02-23T05:00:06.222Z,10.2
2016-02-23T05:01:06.225Z,10.26
2016-02-23T05:02:06.211Z,10.26
2016-02-23T05:03:06.231Z,10.34
2016-02-23T05:04:06.217Z,10.31
2016-02-23T05:05:06.236Z,10.31
2016-02-23T05:06:06.222Z,10.31
2016-02-23T05:07:06.225Z,10.31
2016-02-23T05:08:06.228Z,10.23
2016-02-23T05:09:06.231Z,10.28
2016-02-23T05:10:06.249Z,10.26
2016-02-23T05:11:06.235Z,10.17
2016-02-23T05:12:06.239Z,10.13
2016-02-23T05:13:06.226Z,10.13
2016-02-23T05:14:06.229Z,10.22
2016-02-23T05:15:06.247Z,10.13
2016-02-23T05:16:06.234Z,10.12
2016-02-23T05:17:06.252Z,10.13
2016-02-23T05:18:06.240Z,10.07
2016-02-23T05:19:06.242Z,10.09
2016-02-23T05:20:06.245Z,10.05
2016-02-23T05:21:06.248Z,10.1
2016-02-23T05:22:06.250Z,9.98
2016-02-23T05:23:06.268Z,10.04
2016-02-23T05:24:06.240Z,10.05
2016-02-23T05:25:06.259Z,10.07
2016-02-23T05:26:06.245Z,10.09
2016-02-23T05:27:18.998Z,9.98
2016-02-23T05:28:06.281Z,10.09
2016-02-23T05:29:06.253Z,9.97
2016-02-23T05:30:06.256Z,10.05
2016-02-23T05:31:06.275Z,10.01
2016-02-23T05:32:06.246Z,9.99
2016-02-23T05:33:06.249Z,10.01
2016-02-23T05:34:06.267Z,10.01
2016-02-23T05:35:06.269Z,9.94
2016-02-23T05:36:06.272Z,9.98
2016-02-23T05:37:06.291Z,9.86
2016-02-23T05:38:06.278Z,9.84
2016-02-23T05:39:06.280Z,9.91
2016-02-23T05:40:06.283Z,9.91
2016-02-23T05:41:06.270Z,9.86
2016-02-23T05:42:06.274Z,9.84
2016-02-23T05:43:06.307Z,9.82
2016-02-23T05:44:06.279Z,9.89
2016-02-23T05:45:06.281Z,9.87
2016-02-23T05:46:06.299Z,9.82
2016-02-23T05:47:06.302Z,9.83
2016-02-23T05:48:06.304Z,9.73
2016-02-23T05:49:06.276Z,9.74
2016-02-23T05:50:19.029Z,9.68
2016-02-23T05:51:06.297Z,9.72
2016-02-23T05:52:06.301Z,9.66
2016-02-23T05:53:06.303Z,9.58
2016-02-23T05:54:06.305Z,9.66
2016-02-23T05:55:06.308Z,9.64
2016-02-23T05:56:06.311Z,9.61
2016-02-23T05:57:06.297Z,9.5
2016-02-23T05:58:06.316Z,9.31
2016-02-23T05:59:06.334Z,8.99
2016-02-23T06:00:06.305Z,8.71
2016-02-23T06:01:06.309Z,8.53
2016-02-23T06:02:06.311Z,8.38
2016-02-23T06:03:06.313Z,8.23
2016-02-23T06:04:06.300Z,8.08
2016-02-23T06:05:06.303Z,8.01
2016-02-23T06:06:06.306Z,7.97
2016-02-23T06:07:06.308Z,7.88
2016-02-23T06:08:19.046Z,7.85
2016-02-23T06:09:06.314Z,7.83
2016-02-23T06:10:06.333Z,7.87
2016-02-23T06:11:06.319Z,7.91
2016-02-23T06:12:06.307Z,7.79
2016-02-23T06:13:06.325Z,7.66
2016-02-23T06:14:06.312Z,7.73
2016-02-23T06:15:06.362Z,7.57
2016-02-23T06:16:06.349Z,7.57
2016-02-23T06:17:06.304Z,7.51
2016-02-23T06:18:06.308Z,7.45
2016-02-23T06:19:06.294Z,7.4
2016-02-23T06:20:06.313Z,7.4
2016-02-23T06:21:06.315Z,7.39
2016-02-23T06:22:06.302Z,7.39
2016-02-23T06:23:06.304Z,7.33
2016-02-23T06:24:06.292Z,7.33
2016-02-23T06:25:06.295Z,7.29
2016-02-23T06:26:19.031Z,7.21
2016-02-23T06:27:06.301Z,7.25
2016-02-23T06:28:06.303Z,7.18
2016-02-23T06:29:06.337Z,7.07
2016-02-23T06:30:06.308Z,7.06
2016-02-23T06:31:06.295Z,7.05
2016-02-23T06:32:06.314Z,6.93
2016-02-23T06:33:06.285Z,6.93
2016-02-23T06:34:06.288Z,6.85
2016-02-23T06:35:06.306Z,6.78
2016-02-23T06:36:06.294Z,6.77
2016-02-23T06:37:06.297Z,6.85
2016-02-23T06:38:06.283Z,6.79
2016-02-23T06:39:06.285Z,6.75
2016-02-23T06:40:06.304Z,6.74
2016-02-23T06:41:06.307Z,6.75
2016-02-23T06:42:19.028Z,6.67
2016-02-23T06:43:06.296Z,6.7
2016-02-23T06:44:06.299Z,6.69
2016-02-23T06:45:06.286Z,6.69
2016-02-23T06:46:06.273Z,6.67
2016-02-23T06:47:06.432Z,6.52
2016-02-23T06:48:06.279Z,6.67
2016-02-23T06:49:06.296Z,6.48
2016-02-23T06:50:06.268Z,6.56
2016-02-23T06:51:06.287Z,6.49
2016-02-23T06:52:06.273Z,6.45
2016-02-23T06:53:06.292Z,6.45
2016-02-23T06:54:19.029Z,6.45
2016-02-23T06:55:06.328Z,6.48
2016-02-23T06:56:06.269Z,6.36
2016-02-23T06:57:06.256Z,6.38
2016-02-23T06:58:06.289Z,6.36
2016-02-23T06:59:06.277Z,6.39
2016-02-23T07:00:06.264Z,6.49
2016-02-23T07:01:06.266Z,6.44
2016-02-23T07:02:06.253Z,6.42
2016-02-23T07:03:06.272Z,6.44
2016-02-23T07:04:06.259Z,6.48
2016-02-23T07:05:06.247Z,6.42
2016-02-23T07:06:05.514Z,6.49
2016-02-23T07:07:19.002Z,6.46
2016-02-23T07:08:06.254Z,6.42
2016-02-23T07:09:06.258Z,6.44
2016-02-23T07:10:06.244Z,6.39
2016-02-23T07:11:06.262Z,6.41
2016-02-23T07:12:06.249Z,6.26
2016-02-23T07:13:06.252Z,6.33
2016-02-23T07:14:06.239Z,6.36
2016-02-23T07:15:06.241Z,6.24
2016-02-23T07:16:06.244Z,6.27
2016-02-23T07:17:06.232Z,6.26
2016-02-23T07:18:06.234Z,6.28
2016-02-23T07:19:06.237Z,6.26
2016-02-23T07:20:06.240Z,6.33
2016-02-23T07:21:06.242Z,6.26
2016-02-23T07:22:06.246Z,6.2
2016-02-23T07:23:06.232Z,6.22
2016-02-23T07:24:06.234Z,6.26
2016-02-23T07:25:06.253Z,6.33
2016-02-23T07:26:06.224Z,6.35
2016-02-23T07:27:19.008Z,6.31
2016-02-23T07:28:06.214Z,6.31
2016-02-23T07:29:06.092Z,6.38
2016-02-23T07:30:06.220Z,6.38
2016-02-23T07:31:06.223Z,6.42
2016-02-23T07:32:06.226Z,6.48
2016-02-23T07:33:06.228Z,6.45
2016-02-23T07:34:06.214Z,6.39
2016-02-23T07:35:06.218Z,6.3
2016-02-23T07:36:06.251Z,6.38
2016-02-23T07:37:06.208Z,6.45
2016-02-23T07:38:06.210Z,6.41
2016-02-23T07:39:06.228Z,6.45
2016-02-23T07:40:06.216Z,6.42
2016-02-23T07:41:06.219Z,6.38
2016-02-23T07:42:06.205Z,6.38
2016-02-23T07:43:06.224Z,6.36
2016-02-23T07:44:06.195Z,6.36
2016-02-23T07:45:06.197Z,6.33
2016-02-23T07:46:06.199Z,6.28
2016-02-23T07:47:06.202Z,6.36
2016-02-23T07:48:06.206Z,6.41
2016-02-23T07:49:18.943Z,6.2
2016-02-23T07:50:06.196Z,6.38
2016-02-23T07:51:06.213Z,6.31
2016-02-23T07:52:06.185Z,6.36
2016-02-23T07:53:06.219Z,6.41
2016-02-23T07:54:06.190Z,6.27
2016-02-23T07:55:06.193Z,6.36
2016-02-23T07:56:18.915Z,6.44
2016-02-23T07:57:06.199Z,6.33
2016-02-23T07:58:06.201Z,6.38
2016-02-23T07:59:06.188Z,6.44
2016-02-23T08:00:06.207Z,6.36
2016-02-23T08:01:06.178Z,6.36
2016-02-23T08:02:06.196Z,6.36
2016-02-23T08:03:06.199Z,6.35
2016-02-23T08:04:06.170Z,6.41
2016-02-23T08:05:06.172Z,6.36
2016-02-23T08:06:06.222Z,6.3
2016-02-23T08:07:06.178Z,6.2
2016-02-23T08:08:06.166Z,6.24
2016-02-23T08:09:06.169Z,6.2
2016-02-23T08:10:06.186Z,6.27
2016-02-23T08:11:06.174Z,6.35
2016-02-23T08:12:06.192Z,6.22
2016-02-23T08:13:06.163Z,6.28
2016-02-23T08:14:06.182Z,6.26
2016-02-23T08:15:06.168Z,6.35
2016-02-23T08:16:18.890Z,6.19
2016-02-23T08:17:06.158Z,6.12
2016-02-23T08:18:06.161Z,6.16
2016-02-23T08:19:06.164Z,6.14
2016-02-23T08:20:06.151Z,6.14
2016-02-23T08:21:06.154Z,6.08
2016-02-23T08:22:06.172Z,6.11
2016-02-23T08:23:06.159Z,6.11
2016-02-23T08:24:06.162Z,6.2
2016-02-23T08:25:06.165Z,6.24
2016-02-23T08:26:06.135Z,6.27
2016-02-23T08:27:06.154Z,6.28
2016-02-23T08:28:06.156Z,6.09
2016-02-23T08:29:06.144Z,6.2
2016-02-23T08:30:06.146Z,6.08
2016-02-23T08:31:06.134Z,6.09
2016-02-23T08:32:06.151Z,6.08
2016-02-23T08:33:06.140Z,6.11
2016-02-23T08:34:06.126Z,5.98
2016-02-23T08:35:06.128Z,5.94
2016-02-23T08:36:06.117Z,5.93
2016-02-23T08:37:06.119Z,5.91
2016-02-23T08:38:06.137Z,5.94
2016-02-23T08:39:06.124Z,5.91
2016-02-23T08:40:18.845Z,5.89
2016-02-23T08:41:06.145Z,5.91
2016-02-23T08:42:06.117Z,5.9
2016-02-23T08:43:06.119Z,6.01
2016-02-23T08:44:06.106Z,5.97
2016-02-23T08:45:06.109Z,5.91
2016-02-23T08:46:06.111Z,5.99
2016-02-23T08:47:06.099Z,5.93
2016-02-23T08:48:06.117Z,5.9
2016-02-23T08:49:12.588Z,5.84
2016-02-23T08:50:06.107Z,5.89
2016-02-23T08:51:06.093Z,5.93
2016-02-23T08:52:06.096Z,5.9
2016-02-23T08:53:06.099Z,5.98
2016-02-23T08:54:06.102Z,5.91
2016-02-23T08:55:06.088Z,5.87
2016-02-23T08:56:06.107Z,5.87
2016-02-23T08:57:06.094Z,6.01
2016-02-23T08:58:05.925Z,5.9
2016-02-23T08:59:06.115Z,5.98
2016-02-23T09:00:06.087Z,5.89
2016-02-23T09:01:06.109Z,5.97
2016-02-23T09:02:06.081Z,5.93
2016-02-23T09:03:18.818Z,5.93
2016-02-23T09:04:06.087Z,5.89
2016-02-23T09:05:06.078Z,5.98
2016-02-23T09:06:06.081Z,5.98
2016-02-23T09:07:06.084Z,5.84
2016-02-23T09:08:06.072Z,5.89
2016-02-23T09:09:06.074Z,5.91
2016-02-23T09:10:06.077Z,5.89
2016-02-23T09:11:06.064Z,5.91
2016-02-23T09:12:06.083Z,5.86
2016-02-23T09:13:06.069Z,5.94
2016-02-23T09:14:06.056Z,5.87
2016-02-23T09:15:06.075Z,5.89
2016-02-23T09:16:06.061Z,5.84
2016-02-23T09:17:06.049Z,5.86
2016-02-23T09:18:06.067Z,5.69
2016-02-23T09:19:05.898Z,5.8
2016-02-23T09:20:06.057Z,5.79
2016-02-23T09:21:06.044Z,5.8
2016-02-23T09:22:06.046Z,5.82
2016-02-23T09:23:06.049Z,5.66
2016-02-23T09:24:06.037Z,5.73
2016-02-23T09:25:06.040Z,5.75
2016-02-23T09:26:06.042Z,5.75
2016-02-23T09:27:06.045Z,5.73
2016-02-23T09:28:06.026Z,5.73
2016-02-23T09:29:06.032Z,5.82
2016-02-23T09:30:06.037Z,5.83
2016-02-23T09:31:06.012Z,5.89
2016-02-23T09:32:05.970Z,5.9
2016-02-23T09:33:05.949Z,5.93
2016-02-23T09:34:05.978Z,6.02
2016-02-23T09:35:05.960Z,5.99
2016-02-23T09:36:05.942Z,6.05
2016-02-23T09:37:05.925Z,6.17
2016-02-23T09:38:18.674Z,6.2
2016-02-23T09:39:05.925Z,6.24
2016-02-23T09:40:05.926Z,6.33
2016-02-23T09:41:05.942Z,6.22
2016-02-23T09:42:05.178Z,6.12
2016-02-23T09:43:05.929Z,6.16
2016-02-23T09:44:05.931Z,6.2
2016-02-23T09:45:05.918Z,6.27
2016-02-23T09:46:05.905Z,6.26
2016-02-23T09:47:05.907Z,6.27
2016-02-23T09:48:05.909Z,6.2
2016-02-23T09:49:05.912Z,6.19
2016-02-23T09:50:05.914Z,6.14
2016-02-23T09:51:05.931Z,6.05
2016-02-23T09:52:05.919Z,5.99
2016-02-23T09:53:05.921Z,6.02
2016-02-23T09:54:05.908Z,6.12
2016-02-23T09:55:05.911Z,6.07
2016-02-23T09:56:05.898Z,5.93
2016-02-23T09:57:05.932Z,5.91
2016-02-23T09:58:05.919Z,5.86
2016-02-23T09:59:05.890Z,5.91
2016-02-23T10:00:05.893Z,5.89
2016-02-23T10:01:05.912Z,5.9
2016-02-23T10:02:05.883Z,5.97
2016-02-23T10:03:05.901Z,5.94
2016-02-23T10:04:05.888Z,6.07
2016-02-23T10:05:05.891Z,6.05
2016-02-23T10:06:05.893Z,6.04
2016-02-23T10:07:05.896Z,6.08
2016-02-23T10:08:05.884Z,6.11
2016-02-23T10:09:05.886Z,6.09
2016-02-23T10:10:05.854Z,6.27
2016-02-23T10:11:18.610Z,6.39
2016-02-23T10:12:05.909Z,6.36
2016-02-23T10:13:05.881Z,6.26
2016-02-23T10:14:05.865Z,6.27
2016-02-23T10:15:05.868Z,6.26
2016-02-23T10:16:05.871Z,6.12
2016-02-23T10:17:05.858Z,6.09
2016-02-23T10:18:05.861Z,5.98
2016-02-23T10:19:05.864Z,5.97
2016-02-23T10:20:05.881Z,5.89
2016-02-23T10:21:05.853Z,5.89
2016-02-23T10:22:05.855Z,5.86
2016-02-23T10:23:05.859Z,5.9
2016-02-23T10:24:05.861Z,5.97
2016-02-23T10:25:05.864Z,5.91
2016-02-23T10:26:05.866Z,5.84
2016-02-23T10:27:05.869Z,5.79
2016-02-23T10:28:18.609Z,5.71
2016-02-23T10:29:05.843Z,5.86
2016-02-23T10:30:05.846Z,5.86
2016-02-23T10:31:05.865Z,5.9
2016-02-23T10:32:05.851Z,5.84
2016-02-23T10:33:05.838Z,5.8
2016-02-23T10:34:05.841Z,5.82
2016-02-23T10:35:05.844Z,5.8
2016-02-23T10:36:05.846Z,5.68
2016-02-23T10:37:05.849Z,5.68
2016-02-23T10:38:18.590Z,5.57
2016-02-23T10:39:05.855Z,5.44
2016-02-23T10:40:05.842Z,5.5
2016-02-23T10:41:05.845Z,5.5
2016-02-23T10:42:05.832Z,5.48
2016-02-23T10:43:05.850Z,5.48
2016-02-23T10:44:05.837Z,5.62
2016-02-23T10:45:05.839Z,5.59
2016-02-23T10:46:05.842Z,5.47
2016-02-23T10:47:05.829Z,5.59
2016-02-23T10:48:05.864Z,5.56
2016-02-23T10:49:05.819Z,5.56
2016-02-23T10:50:05.822Z,5.61
2016-02-23T10:51:05.856Z,5.56
2016-02-23T10:52:05.811Z,5.54
2016-02-23T10:53:05.814Z,5.51
2016-02-23T10:54:05.817Z,5.48
2016-02-23T10:55:05.819Z,5.39
2016-02-23T10:56:05.822Z,5.38
2016-02-23T10:57:05.810Z,5.44
2016-02-23T10:58:05.813Z,5.33
2016-02-23T10:59:05.800Z,5.28
2016-02-23T11:00:18.554Z,5.26
2016-02-23T11:01:05.804Z,5.26
2016-02-23T11:02:05.808Z,5.17
2016-02-23T11:03:05.794Z,5.1
2016-02-23T11:04:05.828Z,5.04
2016-02-23T11:05:05.784Z,5.05
2016-02-23T11:06:05.787Z,5.07
2016-02-23T11:07:05.821Z,5.07
2016-02-23T11:08:05.824Z,4.89
2016-02-23T11:09:05.795Z,4.92
2016-02-23T11:10:05.798Z,4.84
2016-02-23T11:11:05.769Z,4.86
2016-02-23T11:12:05.788Z,4.86
2016-02-23T11:13:05.759Z,4.68
2016-02-23T11:14:05.793Z,4.74
2016-02-23T11:15:05.764Z,4.7
2016-02-23T11:16:05.767Z,4.75
2016-02-23T11:17:05.769Z,4.68
2016-02-23T11:18:05.756Z,4.75
2016-02-23T11:19:05.759Z,4.73
2016-02-23T11:20:05.778Z,4.68
2016-02-23T11:21:05.749Z,4.71
2016-02-23T11:22:05.752Z,4.75
2016-02-23T11:23:05.755Z,4.71
2016-02-23T11:24:05.741Z,4.77
2016-02-23T11:25:05.744Z,4.7
2016-02-23T11:26:05.763Z,4.86
2016-02-23T11:27:05.734Z,4.75
2016-02-23T11:28:05.736Z,4.75
2016-02-23T11:29:05.739Z,4.71
2016-02-23T11:30:05.742Z,4.62
2016-02-23T11:31:05.729Z,4.63
2016-02-23T11:32:18.469Z,4.6
2016-02-23T11:33:05.735Z,4.58
2016-02-23T11:34:05.722Z,4.63
2016-02-23T11:35:05.724Z,4.66
2016-02-23T11:36:05.727Z,4.48
2016-02-23T11:37:05.729Z,4.37
2016-02-23T11:38:05.717Z,4.28
2016-02-23T11:39:05.719Z,4.24
2016-02-23T11:40:05.722Z,4.19
2016-02-23T11:41:05.709Z,4.05
2016-02-23T11:42:05.712Z,4.05
2016-02-23T11:43:05.714Z,3.87
2016-02-23T11:44:05.701Z,3.86
2016-02-23T11:45:05.955Z,3.83
2016-02-23T11:46:05.692Z,3.86
2016-02-23T11:47:05.679Z,3.86
2016-02-23T11:48:05.681Z,3.87
2016-02-23T11:49:05.684Z,3.69
2016-02-23T11:50:05.686Z,3.7
2016-02-23T11:51:05.673Z,3.68
2016-02-23T11:52:05.675Z,3.73
2016-02-23T11:53:05.816Z,3.65
2016-02-23T11:54:05.761Z,3.77
2016-02-23T11:55:05.530Z,3.74
2016-02-23T11:56:18.378Z,3.78
2016-02-23T11:57:05.967Z,3.73
2016-02-23T11:58:05.532Z,3.68
2016-02-23T11:59:05.660Z,3.66
2016-02-23T12:00:05.662Z,3.74
2016-02-23T12:01:05.665Z,3.68
2016-02-23T12:02:05.653Z,3.76
2016-02-23T12:03:05.640Z,3.76
2016-02-23T12:04:05.658Z,3.8
2016-02-23T12:05:05.645Z,3.81
2016-02-23T12:06:05.638Z,3.84
2016-02-23T12:07:05.622Z,3.83
2016-02-23T12:08:05.655Z,3.88
2016-02-23T12:09:05.611Z,3.86
2016-02-23T12:10:05.629Z,3.81
2016-02-23T12:11:18.352Z,3.84
2016-02-23T12:12:05.602Z,3.84
2016-02-23T12:13:05.605Z,3.8
2016-02-23T12:14:05.608Z,3.83
2016-02-23T12:15:05.610Z,3.78
2016-02-23T12:16:05.613Z,3.86
2016-02-23T12:17:05.585Z,3.73
2016-02-23T12:18:05.603Z,3.73
2016-02-23T12:19:05.622Z,3.76
2016-02-23T12:20:05.594Z,3.66
2016-02-23T12:21:05.596Z,3.6
2016-02-23T12:22:05.583Z,3.58
2016-02-23T12:23:05.585Z,3.62
2016-02-23T12:24:05.573Z,3.45
2016-02-23T12:25:05.590Z,3.56
2016-02-23T12:26:05.563Z,3.51
2016-02-23T12:27:05.566Z,3.51
2016-02-23T12:28:05.553Z,3.4
2016-02-23T12:29:05.556Z,3.4
2016-02-23T12:30:05.558Z,3.31
2016-02-23T12:31:05.545Z,3.23
2016-02-23T12:32:05.548Z,3.31
2016-02-23T12:33:05.535Z,3.23
2016-02-23T12:34:05.537Z,3.19
2016-02-23T12:35:05.525Z,3.22
2016-02-23T12:36:05.527Z,3.22
2016-02-23T12:37:05.530Z,3.21
2016-02-23T12:38:05.532Z,3.26
2016-02-23T12:39:05.504Z,3.21
2016-02-23T12:40:05.539Z,3.25
2016-02-23T12:41:05.509Z,3.26
2016-02-23T12:42:18.249Z,3.28
2016-02-23T12:43:05.514Z,3.23
2016-02-23T12:44:05.502Z,3.21
2016-02-23T12:45:05.505Z,3.23
2016-02-23T12:46:05.491Z,3.04
2016-02-23T12:47:05.493Z,3.1
2016-02-23T12:48:05.482Z,3.08
2016-02-23T12:49:05.485Z,3.08
2016-02-23T12:50:05.471Z,3.04
2016-02-23T12:51:05.474Z,3.1
2016-02-23T12:52:18.210Z,3.19
2016-02-23T12:53:05.464Z,3.22
2016-02-23T12:54:05.466Z,3.22
2016-02-23T12:55:05.485Z,3.19
2016-02-23T12:56:05.456Z,3.22
2016-02-23T12:57:05.443Z,3.23
2016-02-23T12:58:05.446Z,3.11
2016-02-23T12:59:05.432Z,3.07
2016-02-23T13:00:05.434Z,3.07
2016-02-23T13:01:05.423Z,3.08
2016-02-23T13:02:05.441Z,3.1
2016-02-23T13:03:05.428Z,3.08
2016-02-23T13:04:05.415Z,3.04
2016-02-23T13:05:05.417Z,3.14
2016-02-23T13:06:05.420Z,3.13
2016-02-23T13:07:05.407Z,3.08
2016-02-23T13:08:05.410Z,3.1
2016-02-23T13:09:05.397Z,3.13